Time;durP1;ratioP1;P1;durP2;ratioP2;P2;SDS_P1;SDS_P2;PMS_P1;PMS_P2;Temp;Humidity;BMP_temperature;BMP_pressure;BME280_temperature;BME280_humidity;BME280_pressure;Samples;Min_cycle;Max_cycle;Signal;HPM_P1;HPM_P2
2020/12/14 00:00:14;;;;;;;26.27;13.63;;;;;;;8.35;88.70;99221.91;5104688;28;20268;-72
2020/12/14 00:02:40;;;;;;;26.38;14.25;;;;;;;8.41;88.72;99226.56;5104895;28;20106;-72
2020/12/14 00:05:07;;;;;;;24.08;13.18;;;;;;;8.36;88.63;99232.31;5104569;28;20344;-72
2020/12/14 00:07:32;;;;;;;26.92;13.75;;;;;;;8.35;88.80;99229.84;5103316;28;20023;-72
2020/12/14 00:09:59;;;;;;;24.60;13.75;;;;;;;8.52;88.05;99245.53;5104449;28;20036;-72
2020/12/14 00:12:24;;;;;;;24.35;13.32;;;;;;;8.59;87.55;99238.63;5104367;28;20222;-71
2020/12/14 00:14:49;;;;;;;28.52;13.55;;;;;;;8.54;87.61;99235.66;5102895;28;20039;-72
2020/12/14 00:17:19;;;;;;;24.77;13.65;;;;;;;8.58;87.63;99244.91;5104295;28;20314;-72
2020/12/14 00:19:45;;;;;;;25.17;13.55;;;;;;;8.56;87.64;99238.97;5104479;28;20060;-72
2020/12/14 00:22:10;;;;;;;27.10;13.68;;;;;;;8.56;88.11;99246.06;5104302;28;20019;-72
2020/12/14 00:24:36;;;;;;;24.85;13.68;;;;;;;8.63;87.06;99236.50;5102264;28;20090;-72
2020/12/14 00:27:01;;;;;;;28.13;14.52;;;;;;;8.60;87.63;99247.38;5104109;28;20046;-72
2020/12/14 00:29:27;;;;;;;28.52;14.70;;;;;;;8.62;88.00;99245.41;5104417;28;20028;-72
2020/12/14 00:31:54;;;;;;;25.55;15.00;;;;;;;8.83;86.20;99239.66;5104153;28;20321;-72
2020/12/14 00:34:23;;;;;;;26.73;13.98;;;;;;;8.78;86.35;99237.53;5104281;28;20340;-72
2020/12/14 00:36:48;;;;;;;26.45;13.48;;;;;;;8.59;86.68;99248.38;5103986;28;20027;-72
2020/12/14 00:39:14;;;;;;;27.50;14.80;;;;;;;8.63;86.89;99247.06;5104222;28;20032;-72
2020/12/14 00:41:39;;;;;;;26.58;13.95;;;;;;;8.49;87.88;99243.22;5103932;28;20035;-72
2020/12/14 00:44:05;;;;;;;23.90;13.23;;;;;;;8.61;86.92;99247.22;5104084;28;20073;-72
2020/12/14 00:46:30;;;;;;;24.25;13.32;;;;;;;8.38;88.12;99242.69;5103784;28;20344;-71
2020/12/14 00:48:56;;;;;;;21.60;12.82;;;;;;;8.42;87.81;99246.66;5103982;28;20357;-72
2020/12/14 00:51:28;;;;;;;22.60;12.13;;;;;;;8.45;87.79;99249.81;5103755;28;20032;-71
2020/12/14 00:53:55;;;;;;;21.83;12.02;;;;;;;8.56;86.97;99244.25;5103243;28;20289;-71
2020/12/14 00:56:21;;;;;;;19.95;11.52;;;;;;;8.65;85.88;99253.00;5103515;28;20035;-72
2020/12/14 00:58:46;;;;;;;20.30;10.85;;;;;;;8.69;85.72;99253.50;5103677;28;20044;-72
2020/12/14 01:01:13;;;;;;;21.67;9.85;;;;;;;8.66;85.24;99256.47;5103678;28;20097;-72
2020/12/14 01:03:38;;;;;;;17.95;10.43;;;;;;;8.63;85.33;99261.09;5103645;28;20059;-72
2020/12/14 01:06:04;;;;;;;17.02;9.77;;;;;;;8.70;84.42;99261.25;5103544;28;20206;-72
2020/12/14 01:08:29;;;;;;;19.80;10.23;;;;;;;8.71;84.93;99264.72;5103300;28;20112;-71
2020/12/14 01:10:55;;;;;;;19.80;9.75;;;;;;;8.70;84.82;99271.00;5103453;28;20028;-72
2020/12/14 01:13:20;;;;;;;15.63;8.93;;;;;;;8.68;85.01;99271.16;5103028;28;20048;-72
2020/12/14 01:15:46;;;;;;;18.63;9.15;;;;;;;8.58;85.37;99273.94;5102125;28;20036;-71
2020/12/14 01:18:12;;;;;;;16.90;9.50;;;;;;;8.74;85.06;99275.78;5103337;28;20031;-72
2020/12/14 01:20:40;;;;;;;14.65;8.77;;;;;;;8.91;83.92;99276.66;5103199;28;20321;-72
2020/12/14 01:23:06;;;;;;;16.67;9.05;;;;;;;8.71;84.71;99281.38;5103116;28;20095;-71
2020/12/14 01:25:32;;;;;;;19.42;10.05;;;;;;;8.63;85.54;99273.44;5103126;28;20178;-72
2020/12/14 01:27:57;;;;;;;17.33;10.20;;;;;;;8.77;84.90;99272.81;5103117;28;20329;-72
2020/12/14 01:30:24;;;;;;;19.55;11.80;;;;;;;8.85;84.01;99270.19;5103081;28;20389;-72
2020/12/14 01:32:50;;;;;;;21.35;11.90;;;;;;;8.86;84.46;99276.31;5103139;28;20040;-72
2020/12/14 01:35:15;;;;;;;17.63;10.93;;;;;;;8.90;84.51;99272.34;5102718;28;20032;-72
2020/12/14 01:37:41;;;;;;;20.13;10.95;;;;;;;8.80;84.10;99267.22;5103230;28;20100;-71
2020/12/14 01:40:06;;;;;;;20.85;11.55;;;;;;;8.85;83.44;99264.09;5103222;28;20020;-71
2020/12/14 01:42:37;;;;;;;20.73;11.25;;;;;;;8.79;83.88;99262.09;5102907;28;20032;-72
2020/12/14 01:45:02;;;;;;;21.27;11.50;;;;;;;8.89;83.64;99263.59;5102927;28;20028;-72
2020/12/14 01:47:36;;;;;;;20.08;12.02;;;;;;;8.77;83.71;99264.06;5101672;28;20385;-72
2020/12/14 01:50:04;;;;;;;25.00;12.82;;;;;;;8.72;83.99;99267.19;5102886;28;20094;-72
2020/12/14 01:52:29;;;;;;;26.83;13.73;;;;;;;8.88;83.70;99267.22;5103230;28;20083;-72
2020/12/14 01:54:58;;;;;;;26.75;15.57;;;;;;;8.86;82.56;99276.31;5102466;28;20222;-72
2020/12/14 01:57:24;;;;;;;25.88;14.00;;;;;;;8.93;82.53;99269.38;5102786;28;20043;-72
2020/12/14 01:59:50;;;;;;;23.77;14.00;;;;;;;8.79;82.55;99272.66;5102651;28;20345;-72
2020/12/14 02:02:15;;;;;;;24.08;14.55;;;;;;;8.81;82.70;99279.44;5102752;28;20057;-72
2020/12/14 02:04:41;;;;;;;24.52;14.82;;;;;;;8.74;82.97;99270.50;5101513;28;20252;-72
2020/12/14 02:07:06;;;;;;;24.83;14.52;;;;;;;8.95;82.40;99270.88;5101632;28;20363;-72
2020/12/14 02:09:32;;;;;;;22.40;13.02;;;;;;;8.87;82.33;99265.59;5102499;28;20378;-72
2020/12/14 02:11:57;;;;;;;20.77;13.02;;;;;;;8.93;82.39;99262.28;5102691;28;20091;-72
2020/12/14 02:14:23;;;;;;;21.92;12.15;;;;;;;8.86;82.30;99263.09;5102374;28;20036;-71
2020/12/14 02:16:48;;;;;;;20.65;11.88;;;;;;;8.70;82.16;99266.53;5102599;28;20137;-71
2020/12/14 02:19:14;;;;;;;21.17;11.82;;;;;;;8.79;82.40;99260.28;5102855;28;20072;-72
2020/12/14 02:21:39;;;;;;;18.67;11.40;;;;;;;8.69;82.97;99264.88;5102524;28;20040;-72
2020/12/14 02:24:14;;;;;;;21.30;11.15;;;;;;;8.76;82.83;99259.78;5102841;28;20103;-72
2020/12/14 02:26:40;;;;;;;15.98;9.35;;;;;;;9.00;81.03;99267.75;5102520;28;20047;-72
2020/12/14 02:29:05;;;;;;;18.50;10.70;;;;;;;8.84;81.08;99263.25;5102775;28;20036;-71
2020/12/14 02:31:31;;;;;;;19.73;11.55;;;;;;;8.70;82.06;99263.06;5101343;28;20027;-72
2020/12/14 02:33:56;;;;;;;18.08;11.23;;;;;;;8.75;82.46;99271.34;5102649;28;20314;-72
2020/12/14 02:36:23;;;;;;;16.35;10.02;;;;;;;8.78;81.96;99265.72;5102518;28;20114;-72
2020/12/14 02:38:48;;;;;;;15.52;9.23;;;;;;;8.78;81.31;99271.00;5102584;28;20032;-72
2020/12/14 02:41:14;;;;;;;16.88;9.30;;;;;;;8.75;82.11;99266.06;5102447;28;20043;-72
2020/12/14 02:43:39;;;;;;;15.40;9.15;;;;;;;8.78;81.77;99271.84;5102501;28;20255;-72
2020/12/14 02:46:05;;;;;;;17.80;9.35;;;;;;;8.55;82.53;99268.16;5102429;28;20283;-72
2020/12/14 02:48:30;;;;;;;14.98;9.10;;;;;;;8.61;82.29;99265.69;5106091;28;20047;-72
2020/12/14 02:50:55;;;;;;;14.15;8.50;;;;;;;8.61;82.80;99262.22;5106032;28;20050;-72
2020/12/14 02:53:21;;;;;;;14.82;8.68;;;;;;;8.59;82.54;99265.03;5106005;28;20091;-72
2020/12/14 02:55:46;;;;;;;14.48;8.55;;;;;;;8.47;83.17;99268.13;5105831;28;20229;-72
2020/12/14 02:58:12;;;;;;;14.90;8.98;;;;;;;8.55;82.94;99273.44;5105864;28;20059;-72
2020/12/14 03:00:37;;;;;;;13.10;8.32;;;;;;;8.58;82.70;99270.47;5106178;28;20209;-72
2020/12/14 03:03:02;;;;;;;13.88;7.63;;;;;;;8.54;82.62;99267.31;5105875;28;20340;-71
2020/12/14 03:05:28;;;;;;;16.58;8.75;;;;;;;8.43;82.88;99275.53;5106036;28;20091;-71
2020/12/14 03:07:53;;;;;;;17.20;8.52;;;;;;;8.46;83.26;99275.22;5105573;28;20044;-71
2020/12/14 03:10:19;;;;;;;16.60;9.18;;;;;;;8.61;82.96;99280.69;5105711;28;20028;-72
2020/12/14 03:12:44;;;;;;;17.35;10.07;;;;;;;8.71;82.22;99273.47;5105408;28;20066;-72
2020/12/14 03:15:10;;;;;;;21.20;11.15;;;;;;;8.62;82.96;99279.72;5105441;28;20091;-72
2020/12/14 03:17:35;;;;;;;19.73;11.18;;;;;;;8.49;83.32;99282.81;5105522;28;20326;-72
2020/12/14 03:20:01;;;;;;;20.60;11.15;;;;;;;8.52;83.11;99287.78;5105438;28;20083;-72
2020/12/14 03:22:26;;;;;;;15.80;9.45;;;;;;;8.62;82.62;99285.81;5104182;28;20024;-72
2020/12/14 03:24:52;;;;;;;19.00;8.98;;;;;;;8.48;82.96;99288.25;5104286;28;20024;-72
2020/12/14 03:27:17;;;;;;;19.00;9.45;;;;;;;8.43;83.26;99288.72;5105346;28;20217;-72
2020/12/14 03:29:42;;;;;;;18.17;9.20;;;;;;;8.51;82.74;99290.56;5105179;28;20089;-72
2020/12/14 03:32:08;;;;;;;14.70;8.80;;;;;;;8.55;82.37;99294.53;5105369;28;20024;-72
2020/12/14 03:34:33;;;;;;;15.13;8.57;;;;;;;8.53;82.83;99294.69;5105501;28;20040;-72
2020/12/14 03:36:59;;;;;;;15.50;8.20;;;;;;;8.51;83.29;99296.66;5105218;28;20073;-71
2020/12/14 03:39:24;;;;;;;13.50;7.63;;;;;;;8.57;82.28;99300.47;5105473;28;20419;-72
2020/12/14 03:41:50;;;;;;;13.18;8.00;;;;;;;8.59;82.66;99298.50;5105361;28;20028;-72
2020/12/14 03:44:16;;;;;;;13.05;7.28;;;;;;;8.36;83.05;99293.00;5103917;28;20219;-72
2020/12/14 03:46:41;;;;;;;12.98;7.65;;;;;;;8.53;82.71;99302.63;5104985;28;20036;-72
2020/12/14 03:49:09;;;;;;;11.70;6.80;;;;;;;8.47;83.25;99305.06;5105299;28;20039;-72
2020/12/14 03:51:35;;;;;;;11.45;7.13;;;;;;;8.57;82.70;99297.84;5104756;28;20333;-71
2020/12/14 03:54:00;;;;;;;13.13;7.10;;;;;;;8.35;83.30;99301.06;5104939;28;20028;-71
2020/12/14 03:56:26;;;;;;;12.07;6.70;;;;;;;8.32;83.84;99302.13;5104795;28;20028;-72
2020/12/14 03:58:52;;;;;;;10.88;6.60;;;;;;;8.31;84.41;99308.41;5103910;28;20028;-72
2020/12/14 04:01:25;;;;;;;11.43;6.93;;;;;;;8.55;82.97;99310.38;5104772;28;20246;-72
2020/12/14 04:03:52;;;;;;;13.25;7.10;;;;;;;8.44;83.44;99314.13;5104950;28;20030;-72
2020/12/14 04:06:22;;;;;;;13.05;5.93;;;;;;;8.30;83.86;99309.38;5104637;28;20340;-72
2020/12/14 04:08:48;;;;;;;21.00;12.95;;;;;;;8.21;84.63;99323.53;5104321;28;20039;-72
2020/12/14 04:11:14;;;;;;;14.90;7.25;;;;;;;8.38;83.87;99324.50;5104763;28;20047;-72
2020/12/14 04:13:42;;;;;;;13.55;8.05;;;;;;;8.33;84.47;99335.50;5104216;28;20040;-71
2020/12/14 04:16:11;;;;;;;10.43;6.50;;;;;;;8.27;84.43;99336.06;5104349;28;20036;-71
2020/12/14 04:18:37;;;;;;;11.80;7.32;;;;;;;8.25;84.42;99338.88;5104496;28;20035;-72
2020/12/14 04:21:03;;;;;;;12.95;7.68;;;;;;;8.30;84.52;99346.31;5104269;28;20095;-72
2020/12/14 04:23:29;;;;;;;8.57;5.53;;;;;;;8.32;84.92;99349.63;5104200;28;20028;-72
2020/12/14 04:25:54;;;;;;;12.50;7.32;;;;;;;8.37;84.58;99355.31;5104146;28;20085;-72
2020/12/14 04:28:20;;;;;;;14.45;8.55;;;;;;;8.26;85.22;99366.06;5104176;28;20055;-72
2020/12/14 04:30:45;;;;;;;11.45;8.07;;;;;;;8.25;85.19;99359.97;5104184;28;20032;-72
2020/12/14 04:33:11;;;;;;;12.85;8.25;;;;;;;8.43;84.19;99372.31;5104103;28;20059;-72
2020/12/14 04:35:36;;;;;;;13.73;7.05;;;;;;;8.40;84.40;99373.47;5104031;28;20039;-72
2020/12/14 04:38:02;;;;;;;12.95;6.78;;;;;;;8.46;84.35;99375.47;5103968;28;20091;-72
2020/12/14 04:40:28;;;;;;;13.88;7.03;;;;;;;8.38;84.75;99382.53;5103972;28;20039;-72
2020/12/14 04:42:57;;;;;;;12.02;7.05;;;;;;;8.38;85.30;99391.25;5103880;28;20028;-72
2020/12/14 04:45:24;;;;;;;14.93;8.80;;;;;;;8.49;84.70;99393.63;5104081;28;20035;-72
2020/12/14 04:47:53;;;;;;;15.35;9.02;;;;;;;8.47;84.54;99387.69;5103808;28;20035;-72
2020/12/14 04:50:22;;;;;;;13.88;8.45;;;;;;;8.49;85.05;99393.63;5103689;28;20035;-72
2020/12/14 04:52:48;;;;;;;17.95;9.82;;;;;;;8.50;84.43;99394.47;5102312;28;20095;-72
2020/12/14 04:55:18;;;;;;;19.38;11.25;;;;;;;8.60;83.83;99395.16;5103434;28;20341;-72
2020/12/14 04:57:43;;;;;;;23.02;12.63;;;;;;;8.58;84.35;99391.88;5102320;28;20024;-72
2020/12/14 05:00:09;;;;;;;23.65;11.27;;;;;;;8.62;84.50;99401.94;5103803;28;20039;-72
2020/12/14 05:02:34;;;;;;;17.73;9.80;;;;;;;8.69;84.17;99406.59;5103586;28;20032;-72
2020/12/14 05:05:00;;;;;;;17.42;8.15;;;;;;;8.37;85.06;99407.25;5103512;28;20035;-72
2020/12/14 05:07:40;;;;;;;13.50;6.47;;;;;;;8.26;86.04;99414.38;5103436;28;20030;-72
2020/12/14 05:10:05;;;;;;;14.60;7.82;;;;;;;8.32;85.86;99408.50;5103222;28;20039;-72
2020/12/14 05:12:37;;;;;;;12.45;7.20;;;;;;;8.10;86.29;99398.44;5103296;28;20038;-72
2020/12/14 05:15:02;;;;;;;12.60;6.97;;;;;;;8.17;86.20;99423.22;5103127;28;20039;-71
2020/12/14 05:17:27;;;;;;;13.38;7.35;;;;;;;8.32;85.21;99428.75;5103394;28;20039;-71
2020/12/14 05:19:53;;;;;;;13.15;7.30;;;;;;;8.25;85.89;99425.09;5103108;28;20031;-71
2020/12/14 05:22:18;;;;;;;11.38;6.70;;;;;;;8.26;86.03;99424.09;5103162;28;20224;-72
2020/12/14 05:24:50;;;;;;;13.05;6.55;;;;;;;8.16;86.81;99426.84;5102913;28;20048;-72
2020/12/14 05:27:31;;;;;;;10.18;6.13;;;;;;;8.11;86.62;99430.94;5101990;28;20235;-72
2020/12/14 05:29:57;;;;;;;13.85;6.57;;;;;;;8.15;87.09;99446.28;5102313;28;20050;-72
2020/12/14 05:32:23;;;;;;;13.55;7.97;;;;;;;8.10;86.98;99448.56;5103084;28;20321;-72
2020/12/14 05:34:48;;;;;;;18.60;9.43;;;;;;;8.07;87.15;99450.66;5102938;28;20040;-72
2020/12/14 05:37:15;;;;;;;14.88;8.52;;;;;;;7.97;87.38;99454.22;5103083;28;20095;-71
2020/12/14 05:39:42;;;;;;;13.63;8.40;;;;;;;8.02;88.43;99464.31;5102874;28;20038;-71
2020/12/14 05:42:10;;;;;;;13.90;9.73;;;;;;;7.93;88.64;99462.59;5102949;28;20049;-72
2020/12/14 05:44:36;;;;;;;11.95;6.47;;;;;;;8.00;88.38;99464.47;5103396;28;20040;-72
2020/12/14 05:47:02;;;;;;;11.68;7.75;;;;;;;7.89;88.71;99472.59;5102949;28;20020;-72
2020/12/14 05:49:28;;;;;;;12.15;6.55;;;;;;;7.90;88.56;99470.81;5103147;28;20106;-71
2020/12/14 05:52:04;;;;;;;12.65;7.13;;;;;;;7.91;88.50;99469.81;5102912;28;20043;-72
2020/12/14 05:54:36;;;;;;;13.40;6.97;;;;;;;7.77;89.69;99475.63;5103018;28;20229;-72
2020/12/14 05:57:05;;;;;;;10.50;5.80;;;;;;;7.80;88.68;99480.59;5102794;28;20028;-72
2020/12/14 05:59:34;;;;;;;10.85;6.38;;;;;;;7.80;89.08;99483.22;5101698;28;20051;-72
2020/12/14 06:02:05;;;;;;;11.52;7.03;;;;;;;7.73;89.41;99484.81;5103067;28;20046;-72
2020/12/14 06:04:33;;;;;;;13.60;7.55;;;;;;;7.88;88.66;99489.41;5103158;28;20044;-72
2020/12/14 06:07:03;;;;;;;15.57;8.70;;;;;;;7.91;89.17;99493.56;5102790;28;20040;-72
2020/12/14 06:09:34;;;;;;;11.23;6.88;;;;;;;7.75;89.30;99491.59;5103118;28;20047;-72
2020/12/14 06:12:03;;;;;;;13.77;7.55;;;;;;;7.71;90.16;99498.13;5102725;28;20028;-72
2020/12/14 06:14:37;;;;;;;14.75;7.30;;;;;;;7.80;89.15;99497.25;5102097;28;20051;-71
2020/12/14 06:17:08;;;;;;;17.63;8.80;;;;;;;7.68;89.54;99491.38;5102694;28;20220;-71
2020/12/14 06:19:34;;;;;;;13.77;7.32;;;;;;;7.71;89.45;99497.31;5102867;28;20044;-72
2020/12/14 06:22:03;;;;;;;15.85;8.00;;;;;;;7.79;89.59;99507.94;5103890;28;20028;-71
2020/12/14 06:24:31;;;;;;;12.82;7.90;;;;;;;7.66;90.60;99514.41;5106796;28;20039;-71
2020/12/14 06:26:58;;;;;;;14.25;8.30;;;;;;;7.75;90.02;99506.56;5106774;28;20095;-72
2020/12/14 06:29:34;;;;;;;16.20;8.45;;;;;;;7.86;89.32;99511.63;5106873;28;20032;-72
2020/12/14 06:32:00;;;;;;;15.20;8.38;;;;;;;7.62;90.02;99504.31;5105256;28;20214;-71
2020/12/14 06:34:32;;;;;;;16.83;8.63;;;;;;;7.61;90.49;99513.19;5106659;28;20099;-72
2020/12/14 06:37:02;;;;;;;14.60;8.75;;;;;;;7.50;91.44;99510.75;5106449;28;20055;-72
2020/12/14 06:39:40;;;;;;;15.90;8.93;;;;;;;7.49;91.55;99512.56;5106594;28;20047;-72
2020/12/14 06:42:08;;;;;;;13.65;7.75;;;;;;;7.63;91.45;99516.50;5106286;28;20024;-71
2020/12/14 06:44:54;;;;;;;14.32;9.02;;;;;;;7.62;90.67;99514.84;5106488;28;20061;-71
2020/12/14 06:47:20;;;;;;;13.43;7.57;;;;;;;7.58;91.33;99521.41;5095152;28;20032;-72
2020/12/14 06:49:47;;;;;;;11.95;7.20;;;;;;;7.75;90.59;99517.13;5105933;28;20023;-72
2020/12/14 06:52:13;;;;;;;15.45;8.20;;;;;;;7.53;91.65;99521.00;5106302;28;20012;-72
2020/12/14 06:54:44;;;;;;;21.52;12.35;;;;;;;7.54;91.60;99525.31;5106158;28;20028;-72
2020/12/14 06:57:14;;;;;;;66.50;37.85;;;;;;;7.61;92.23;99527.19;5105909;28;20221;-72
2020/12/14 06:59:39;;;;;;;77.10;39.90;;;;;;;7.67;91.71;99529.22;5105835;28;20073;-71
2020/12/14 07:02:07;;;;;;;123.20;56.85;;;;;;;7.60;92.01;99525.53;5104679;28;20191;-71
2020/12/14 07:04:32;;;;;;;130.32;56.95;;;;;;;7.64;92.60;99541.88;5106086;28;20035;-71
2020/12/14 07:07:04;;;;;;;129.35;59.92;;;;;;;7.52;92.07;99538.63;5105791;28;20020;-71
2020/12/14 07:09:32;;;;;;;113.95;60.90;;;;;;;7.77;91.34;99547.63;5106059;28;20024;-72
2020/12/14 07:12:09;;;;;;;75.68;46.88;;;;;;;7.79;91.24;99548.31;5105691;28;20048;-71
2020/12/14 07:15:04;;;;;;;65.00;42.25;;;;;;;7.78;91.51;99536.09;5104022;28;20368;-72
2020/12/14 07:17:29;;;;;;;42.03;28.08;;;;;;;7.69;91.13;99534.34;5088122;28;20081;-72
2020/12/14 07:19:56;;;;;;;33.83;20.45;;;;;;;7.68;91.36;99540.59;5105442;28;20020;-72
2020/12/14 07:22:24;;;;;;;23.65;12.23;;;;;;;7.72;91.34;99541.13;5105402;28;20221;-72
2020/12/14 07:25:00;;;;;;;22.50;11.77;;;;;;;7.76;90.77;99542.50;5105113;28;20026;-72
2020/12/14 07:27:27;;;;;;;20.55;11.35;;;;;;;7.78;90.60;99553.72;5105337;28;20020;-72
2020/12/14 07:30:01;;;;;;;17.73;9.82;;;;;;;7.66;90.93;99550.47;5105256;28;20053;-72
2020/12/14 07:32:27;;;;;;;16.75;8.63;;;;;;;7.78;90.44;99559.81;5105266;28;20016;-72
2020/12/14 07:34:52;;;;;;;14.55;8.70;;;;;;;7.69;90.64;99560.72;5105085;28;20329;-72
2020/12/14 07:37:22;;;;;;;20.70;9.00;;;;;;;7.62;91.26;99560.47;5104048;28;20043;-72
2020/12/14 07:39:48;;;;;;;18.17;9.85;;;;;;;7.59;91.05;99552.03;5105063;28;20028;-72
2020/12/14 07:42:24;;;;;;;15.90;9.40;;;;;;;7.73;90.99;99569.16;5104991;28;20024;-72
2020/12/14 07:44:50;;;;;;;22.10;10.45;;;;;;;7.78;90.79;99575.63;5103799;28;20305;-72
2020/12/14 07:47:20;;;;;;;19.73;10.25;;;;;;;7.72;91.03;99578.88;5104930;28;20019;-72
2020/12/14 07:49:45;;;;;;;16.45;8.93;;;;;;;7.71;90.78;99590.38;5104784;28;20032;-71
2020/12/14 07:52:25;;;;;;;23.77;10.50;;;;;;;7.81;91.18;99596.44;5103885;28;20012;-71
2020/12/14 07:55:05;;;;;;;25.95;10.55;;;;;;;7.65;91.66;99586.53;5104808;28;20051;-71
2020/12/14 07:57:32;;;;;;;21.42;9.80;;;;;;;7.66;91.11;99593.47;5104840;28;20218;-72
2020/12/14 07:59:59;;;;;;;20.48;10.85;;;;;;;7.91;89.90;99597.19;5104637;28;20023;-72
2020/12/14 08:02:26;;;;;;;23.73;10.60;;;;;;;7.71;90.67;99594.81;5104705;28;20028;-72
2020/12/14 08:04:59;;;;;;;21.40;9.65;;;;;;;7.77;90.90;99595.06;5104695;28;20087;-72
2020/12/14 08:07:29;;;;;;;15.73;8.52;;;;;;;7.69;90.72;99601.06;5103487;28;20260;-72
2020/12/14 08:09:54;;;;;;;17.63;9.05;;;;;;;7.66;91.03;99606.63;5104482;28;20087;-72
2020/12/14 08:12:20;;;;;;;23.55;11.45;;;;;;;7.72;90.44;99607.84;5104389;28;20102;-72
2020/12/14 08:14:47;;;;;;;25.80;11.88;;;;;;;7.63;91.55;99590.28;5104182;28;20088;-72
2020/12/14 08:17:12;;;;;;;27.25;11.57;;;;;;;7.72;90.87;99612.28;5104507;28;20024;-72
2020/12/14 08:19:38;;;;;;;20.23;11.20;;;;;;;7.75;91.19;99612.84;5104660;28;20104;-72
2020/12/14 08:22:05;;;;;;;25.25;10.55;;;;;;;7.71;90.67;99600.09;5104359;28;20310;-71
2020/12/14 08:24:30;;;;;;;27.35;11.68;;;;;;;7.69;91.86;99606.34;5104466;28;20039;-71
2020/12/14 08:26:59;;;;;;;26.17;11.90;;;;;;;7.80;91.69;99613.22;5104413;28;20016;-71
2020/12/14 08:29:29;;;;;;;18.02;9.70;;;;;;;7.69;91.56;99611.63;5104525;28;20042;-71
2020/12/14 08:32:00;;;;;;;21.45;10.50;;;;;;;7.59;92.20;99616.09;5103066;28;20027;-71
2020/12/14 08:34:36;;;;;;;24.45;12.60;;;;;;;7.67;92.34;99623.28;5104432;28;20244;-72
2020/12/14 08:37:04;;;;;;;22.55;11.45;;;;;;;7.74;92.16;99618.25;5104100;28;20046;-72
2020/12/14 08:39:30;;;;;;;24.10;12.30;;;;;;;7.71;91.38;99616.75;5104368;28;20031;-72
2020/12/14 08:42:10;;;;;;;22.83;11.43;;;;;;;7.79;91.09;99616.84;5103092;28;20061;-72
2020/12/14 08:44:41;;;;;;;26.38;12.52;;;;;;;7.79;91.66;99616.84;5103893;28;20032;-71
2020/12/14 08:47:16;;;;;;;23.00;12.40;;;;;;;7.82;91.04;99613.06;5104204;28;20043;-71
2020/12/14 08:49:43;;;;;;;26.60;12.77;;;;;;;7.88;91.63;99625.66;5103588;28;20345;-72
2020/12/14 08:52:19;;;;;;;22.00;12.30;;;;;;;7.78;91.62;99619.63;5103770;28;20024;-72
2020/12/14 08:54:55;;;;;;;26.08;12.57;;;;;;;7.76;91.33;99619.75;5103624;28;20040;-72
2020/12/14 08:57:29;;;;;;;22.77;11.93;;;;;;;7.76;91.81;99617.13;5103914;28;20016;-71
2020/12/14 09:00:04;;;;;;;21.13;10.90;;;;;;;7.59;91.88;99584.47;5103545;28;20228;-71
2020/12/14 09:02:29;;;;;;;23.05;10.55;;;;;;;7.79;91.41;99618.63;5103599;28;20028;-71
2020/12/14 09:04:56;;;;;;;25.30;12.57;;;;;;;7.71;92.02;99605.38;5103420;28;20077;-71
2020/12/14 09:07:26;;;;;;;22.98;10.98;;;;;;;7.93;90.43;99611.06;5103529;28;20024;-72
2020/12/14 09:09:51;;;;;;;22.35;11.02;;;;;;;7.75;90.98;99609.38;5103318;28;20028;-72
2020/12/14 09:12:17;;;;;;;21.63;11.23;;;;;;;7.66;91.61;99600.53;5103319;28;20027;-71
2020/12/14 09:14:43;;;;;;;20.75;9.52;;;;;;;7.83;91.73;99605.00;5103060;28;20740;-71
2020/12/14 09:17:17;;;;;;;22.77;10.95;;;;;;;7.82;91.00;99605.16;5102198;28;20026;-71
2020/12/14 09:19:50;;;;;;;19.35;10.13;;;;;;;7.86;90.11;99609.16;5103234;28;20229;-71
2020/12/14 09:22:25;;;;;;;14.18;7.20;;;;;;;7.74;91.02;99599.81;5103249;28;20028;-71
2020/12/14 09:24:50;;;;;;;22.48;10.65;;;;;;;7.71;91.13;99603.56;5103012;28;20055;-71
2020/12/14 09:27:16;;;;;;;26.80;13.18;;;;;;;7.65;91.82;99598.88;5103152;28;20321;-71
2020/12/14 09:29:42;;;;;;;21.15;11.38;;;;;;;7.60;92.27;99591.41;5103113;28;20074;-71
2020/12/14 09:32:11;;;;;;;23.67;12.10;;;;;;;7.44;92.78;99599.13;5103124;28;20066;-71
2020/12/14 09:34:37;;;;;;;21.23;10.60;;;;;;;7.45;92.88;99598.13;5102003;28;20233;-71
2020/12/14 09:37:03;;;;;;;21.27;10.02;;;;;;;7.55;92.63;99598.09;5103124;28;20051;-71
2020/12/14 09:39:30;;;;;;;19.60;10.40;;;;;;;7.56;92.88;99597.13;5103352;28;20038;-71
2020/12/14 09:41:57;;;;;;;16.48;9.32;;;;;;;7.40;92.54;99589.03;5102989;28;20028;-71
2020/12/14 09:44:27;;;;;;;19.60;11.23;;;;;;;7.50;93.08;99587.16;5101891;28;20191;-71
2020/12/14 09:46:53;;;;;;;17.00;8.93;;;;;;;7.54;91.78;99585.91;5102978;28;20039;-71
2020/12/14 09:49:19;;;;;;;16.88;9.10;;;;;;;7.44;92.37;99578.03;5103238;28;20036;-71
2020/12/14 09:51:45;;;;;;;19.70;10.02;;;;;;;7.45;92.08;99584.97;5102878;28;20102;-71
2020/12/14 09:54:11;;;;;;;25.20;10.82;;;;;;;7.48;91.50;99583.84;5102944;28;20032;-71
2020/12/14 09:56:36;;;;;;;15.63;8.98;;;;;;;7.53;92.33;99586.88;5103465;28;20059;-71
2020/12/14 09:59:03;;;;;;;20.20;10.15;;;;;;;7.59;91.25;99583.66;5107303;28;20117;-71
2020/12/14 10:01:29;;;;;;;20.45;10.18;;;;;;;7.53;91.79;99585.06;5107053;28;20035;-71
2020/12/14 10:03:55;;;;;;;22.88;9.30;;;;;;;7.69;90.75;99582.63;5107231;28;20040;-71
2020/12/14 10:06:20;;;;;;;17.35;7.97;;;;;;;7.59;90.31;99573.94;5107070;28;20056;-71
2020/12/14 10:08:46;;;;;;;17.65;8.15;;;;;;;7.64;90.35;99578.78;5107040;28;20044;-71
2020/12/14 10:11:12;;;;;;;15.40;8.35;;;;;;;7.52;90.11;99572.88;5106897;28;20028;-71
2020/12/14 10:13:39;;;;;;;17.45;9.80;;;;;;;7.54;90.00;99572.72;5106532;28;20044;-71
2020/12/14 10:16:05;;;;;;;21.42;11.75;;;;;;;7.56;89.84;99587.41;5105529;28;20024;-71
2020/12/14 10:18:31;;;;;;;19.38;11.93;;;;;;;7.74;89.68;99584.00;5106780;28;20256;-71
2020/12/14 10:20:56;;;;;;;15.65;8.93;;;;;;;7.64;90.56;99586.69;5106767;28;20024;-72
2020/12/14 10:23:22;;;;;;;16.35;8.00;;;;;;;7.50;90.29;99571.34;5106551;28;20044;-71
2020/12/14 10:25:47;;;;;;;11.40;7.03;;;;;;;7.55;90.25;99579.66;5106596;28;20304;-72
2020/12/14 10:28:13;;;;;;;16.85;8.88;;;;;;;7.64;89.67;99579.59;5106516;28;20221;-72
2020/12/14 10:30:39;;;;;;;14.20;7.75;;;;;;;7.56;90.52;99582.13;5106501;28;20284;-71
2020/12/14 10:33:05;;;;;;;12.40;6.28;;;;;;;7.61;89.51;99582.53;5106537;28;20040;-72
2020/12/14 10:35:31;;;;;;;12.10;7.13;;;;;;;7.52;90.30;99580.78;5105173;28;20267;-72
2020/12/14 10:37:57;;;;;;;12.15;7.10;;;;;;;7.57;90.41;99581.16;5106365;28;20038;-71
2020/12/14 10:40:26;;;;;;;12.95;6.47;;;;;;;7.42;90.89;99573.91;5106379;28;20012;-71
2020/12/14 10:42:53;;;;;;;12.40;7.53;;;;;;;7.45;91.20;99582.34;5104916;28;20061;-71
2020/12/14 10:45:18;;;;;;;13.68;7.20;;;;;;;7.62;89.92;99583.34;5106425;28;20079;-71
2020/12/14 10:47:44;;;;;;;10.50;5.85;;;;;;;7.48;91.18;99579.41;5106202;28;20055;-71
2020/12/14 10:50:10;;;;;;;15.00;5.82;;;;;;;7.31;90.58;99552.03;5106038;28;20050;-71
2020/12/14 10:52:35;;;;;;;10.18;5.70;;;;;;;7.59;90.34;99587.13;5106025;28;20103;-72
2020/12/14 10:55:03;;;;;;;13.07;6.00;;;;;;;7.56;89.71;99579.50;5105921;28;20352;-71
2020/12/14 10:57:28;;;;;;;14.80;6.47;;;;;;;7.56;89.93;99581.31;5105984;28;20250;-71
2020/12/14 11:00:06;;;;;;;10.40;5.97;;;;;;;7.63;89.38;99585.84;5105812;28;20028;-71
2020/12/14 11:02:33;;;;;;;9.13;5.13;;;;;;;7.64;88.91;99584.88;5105907;28;20031;-72
2020/12/14 11:04:58;;;;;;;7.78;4.22;;;;;;;7.68;88.73;99582.78;5105822;28;20024;-71
2020/12/14 11:07:23;;;;;;;7.88;4.05;;;;;;;7.65;88.31;99577.78;5105649;28;20080;-71
2020/12/14 11:09:49;;;;;;;8.68;4.75;;;;;;;7.62;89.53;99586.00;5105626;28;20312;-71
2020/12/14 11:12:14;;;;;;;9.48;5.63;;;;;;;7.81;88.34;99587.69;5105637;28;20028;-71
2020/12/14 11:14:40;;;;;;;8.88;4.90;;;;;;;7.62;88.83;99588.63;5105313;28;20036;-71
2020/12/14 11:17:05;;;;;;;7.63;3.85;;;;;;;7.62;89.04;99580.72;5104537;28;20097;-71
2020/12/14 11:19:31;;;;;;;8.50;3.70;;;;;;;7.61;88.79;99587.81;5105389;28;20032;-71
2020/12/14 11:21:57;;;;;;;8.68;4.68;;;;;;;7.60;89.01;99585.31;5105541;28;20325;-72
2020/12/14 11:24:23;;;;;;;8.60;4.30;;;;;;;7.58;89.53;99582.00;5105704;28;20302;-71
2020/12/14 11:26:50;;;;;;;8.68;4.82;;;;;;;7.72;88.67;99583.31;5105329;28;20035;-71
2020/12/14 11:29:16;;;;;;;10.13;5.13;;;;;;;7.52;88.62;99577.31;5105610;28;20091;-71